9°C Temp
6°C Dewpoint
82% Humidity
Temperature
10 KM/H
6 MPH
5 KTS
330°
North North
West

Wind Speed
Clear
Conditions
Pressure 1030.92 (hPa) - 30.44 (in)
Visibility 6.2 (mi) - 10.0 (km)

Current Conditions
LIMP
Location 40(km)
Metar :LIMP 221450Z 33005KT CAVOK 09/06 Q1031
Wed 22nd January 15:50 pm

Airport
  Metar Aviation API Data Provided by https://www.checkwx.com/ PHP scripts by weather34.com ©2020